KI5TKR Weather Reports


Display with metric or nautical units.
time (UTC)temp
F
wind
direction
speed
MPH
gust
MPH
rain 1hr
in
rain 24hr
in
rain mn
in
humidity
%
barometer
mb
20240221151854 60 252 6.0 7.0 0.00 0.00 0.00 93 1024.4
20240221151353 60 140 3.0 3.0 0.00 0.00 0.00 94 1024.2
20240221150853 59 196 5.0 6.0 0.00 0.00 0.00 94 1024.2
20240221150352 60 234 5.0 6.0 0.00 0.00 0.00 94 1023.9
20240221145851 59 223 6.0 7.0 0.00 0.00 0.00 95 1024.0
20240221145350 59 190 6.0 7.0 0.00 0.00 0.00 95 1023.9
20240221144850 59 6 2.0 2.0 0.00 0.00 0.00 96 1023.9
20240221144350 59 165 7.0 9.0 0.00 0.00 0.00 96 1023.7
20240221143849 59 203 4.0 5.0 0.00 0.00 0.00 96 1023.4
20240221143348 59 202 3.0 5.0 0.00 0.00 0.00 96 1023.7
20240221142846 59 209 3.0 3.0 0.00 0.00 0.00 97 1023.5
20240221142345 59 201 3.0 5.0 0.00 0.00 0.00 97 1023.6
20240221141843 59 195 7.0 7.0 0.00 0.00 0.00 97 1023.5
20240221141341 59 182 7.0 9.0 0.00 0.00 0.00 97 1023.6
20240221140841 59 233 3.0 3.0 0.00 0.00 0.00 97 1023.6
20240221140338 59 200 3.0 3.0 0.00 0.00 0.00 97 1023.5
20240221135838 59 211 5.0 6.0 0.00 0.00 0.00 97 1023.5
20240221135338 59 207 2.0 2.0 0.00 0.00 0.00 97 1023.5
20240221134836 59 212 3.0 3.0 0.00 0.00 0.00 96 1023.3
20240221134335 59 145 3.0 3.0 0.00 0.00 0.00 96 1023.5
20240221133833 59 217 6.0 8.0 0.00 0.00 0.00 96 1023.5
20240221133333 59 216 7.0 8.0 0.00 0.00 0.00 96 1023.7
20240221132832 59 216 3.0 3.0 0.00 0.00 0.00 96 1023.4
20240221132331 59 211 5.0 6.0 0.00 0.00 0.00 96 1023.6
20240221131829 59 177 3.0 3.0 0.00 0.00 0.00 96 1023.5
20240221131327 59 204 3.0 3.0 0.00 0.00 0.00 96 1023.6
20240221130826 59 186 4.0 5.0 0.00 0.00 0.00 96 1023.6
20240221130325 59 156 3.0 3.0 0.00 0.00 0.00 96 1023.4
20240221125824 59 186 3.0 3.0 0.00 0.00 0.00 96 1023.5
20240221125322 59 172 7.0 7.0 0.00 0.00 0.00 96 1023.5
20240221124821 59 96 1.0 1.0 0.00 0.00 0.00 96 1023.5
20240221124321 59 219 3.0 3.0 0.00 0.00 0.00 96 1023.4
20240221123820 59 186 7.0 8.0 0.00 0.00 0.00 96 1023.3
20240221123318 59 170 5.0 6.0 0.00 0.00 0.00 96 1023.4
20240221122817 59 197 6.0 7.0 0.00 0.00 0.00 96 1023.3
20240221122315 59 216 5.0 6.0 0.00 0.00 0.00 96 1023.6
20240221121814 59 226 5.0 7.0 0.00 0.00 0.00 96 1023.5
20240221121313 59 64 2.0 2.0 0.00 0.00 0.00 96 1023.5
20240221120811 59 213 5.0 6.0 0.00 0.00 0.00 96 1023.4
20240221120311 59 215 4.0 5.0 0.00 0.00 0.00 96 1023.5
20240221115810 59 235 3.0 3.0 0.00 0.00 0.00 95 1023.4
20240221115308 59 195 3.0 3.0 0.00 0.00 0.00 95 1023.6
20240221114807 59 176 6.0 9.0 0.00 0.00 0.00 95 1023.4
20240221114306 59 243 6.0 7.0 0.00 0.00 0.00 95 1023.1
20240221113805 59 216 4.0 5.0 0.00 0.00 0.00 95 1023.3
20240221113304 59 156 7.0 8.0 0.00 0.00 0.00 95 1023.2
20240221112803 59 201 5.0 7.0 0.00 0.00 0.00 95 1023.4
20240221112306 59 148 3.0 6.0 0.00 0.00 0.00 95 1023.3
20240221111801 59 200 7.0 8.0 0.00 0.00 0.00 95 1023.3
20240221111300 59 91 1.0 2.0 0.00 0.00 0.00 95 1022.9
20240221110759 59 194 3.0 3.0 0.00 0.00 0.00 95 1023.1
20240221110257 60 133 2.0 3.0 0.00 0.00 0.00 95 1023.1
20240221105756 60 213 7.0 8.0 0.00 0.00 0.00 95 1023.0
20240221105254 60 196 4.0 6.0 0.00 0.00 0.00 95 1023.1
20240221104753 60 180 5.0 6.0 0.00 0.00 0.00 95 1023.0
20240221104251 60 213 5.0 6.0 0.00 0.00 0.00 94 1023.3
20240221103749 60 175 5.0 6.0 0.00 0.00 0.00 94 1023.0
20240221103249 60 182 4.0 5.0 0.00 0.00 0.00 94 1022.9
20240221102747 60 175 6.0 8.0 0.00 0.00 0.00 94 1023.0
20240221102245 60 169 4.0 5.0 0.00 0.00 0.00 94 1023.0
20240221101745 60 218 8.0 10.0 0.00 0.00 0.00 94 1023.0
20240221101244 60 205 5.0 7.0 0.00 0.00 0.00 94 1023.0
20240221100744 60 197 7.0 9.0 0.00 0.00 0.00 94 1023.0
20240221100242 60 241 5.0 6.0 0.00 0.00 0.00 94 1022.9
20240221095740 60 207 6.0 7.0 0.00 0.00 0.00 95 1023.0
20240221095238 60 226 4.0 6.0 0.00 0.00 0.00 95 1023.0
20240221094737 60 203 4.0 5.0 0.00 0.00 0.00 95 1023.1
20240221094235 60 172 4.0 5.0 0.00 0.00 0.00 95 1023.0
20240221093734 60 207 4.0 6.0 0.00 0.00 0.00 95 1023.1
20240221093232 60 213 5.0 7.0 0.00 0.00 0.00 95 1023.2
20240221092730 60 247 7.0 9.0 0.00 0.00 0.00 95 1023.2
20240221092228 60 224 5.0 6.0 0.00 0.00 0.00 95 1023.3
20240221091729 60 222 4.0 5.0 0.00 0.00 0.00 95 1023.3
20240221091227 59 222 5.0 6.0 0.00 0.00 0.00 95 1023.1
20240221090727 59 212 4.0 6.0 0.00 0.00 0.00 95 1023.3
20240221090226 59 190 4.0 5.0 0.00 0.00 0.00 95 1023.4
20240221085725 59 220 3.0 3.0 0.00 0.00 0.00 95 1023.4
20240221085224 59 156 3.0 3.0 0.00 0.00 0.00 95 1023.4
20240221084723 59 83 2.0 2.0 0.00 0.00 0.00 95 1023.4
20240221084222 59 53 1.0 1.0 0.00 0.00 0.00 95 1023.4
20240221083721 59 208 3.0 3.0 0.00 0.00 0.00 94 1023.6
20240221083220 59 177 3.0 3.0 0.00 0.00 0.00 94 1023.6
20240221082719 59 26 0.0 0.0 0.00 0.00 0.00 94 1023.5
20240221082219 59 41 1.0 1.0 0.00 0.00 0.00 94 1023.5
20240221081717 59 32 0.0 0.0 0.00 0.00 0.00 93 1023.6
20240221081215 59 26 2.0 2.0 0.00 0.00 0.00 93 1023.8
20240221080714 59 42 1.0 1.0 0.00 0.00 0.00 93 1023.6
20240221080213 59 38 0.0 1.0 0.00 0.00 0.00 92 1023.9
20240221075712 59 182 3.0 3.0 0.00 0.00 0.00 92 1023.8
20240221075212 60 158 3.0 3.0 0.00 0.00 0.00 92 1023.8
20240221074711 60 192 2.0 2.0 0.00 0.00 0.00 92 1023.9
20240221074210 60 315 1.0 1.0 0.00 0.00 0.00 91 1023.8
20240221073710 60 173 4.0 5.0 0.00 0.00 0.00 91 1023.8
20240221073209 60 106 3.0 3.0 0.00 0.00 0.00 91 1023.8
20240221072707 60 66 2.0 2.0 0.00 0.00 0.00 91 1023.9
20240221072207 60 51 1.0 2.0 0.00 0.00 0.00 91 1024.0
20240221071705 60 90 2.0 3.0 0.00 0.00 0.00 91 1023.9
20240221071204 60 185 5.0 6.0 0.00 0.00 0.00 91 1024.3
20240221070703 60 182 3.0 3.0 0.00 0.00 0.00 91 1024.2
20240221070203 60 193 4.0 5.0 0.00 0.00 0.00 91 1024.0
20240221065702 60 151 3.0 3.0 0.00 0.00 0.00 90 1024.2
20240221065200 60 254 5.0 6.0 0.00 0.00 0.00 91 1024.4
20240221064659 60 48 2.0 3.0 0.00 0.00 0.00 90 1024.2
20240221064158 61 39 1.0 1.0 0.00 0.00 0.00 90 1024.2
20240221063657 60 204 1.0 2.0 0.00 0.00 0.00 90 1024.5
20240221063157 60 219 2.0 2.0 0.00 0.00 0.00 89 1024.3
20240221062657 60 41 1.0 1.0 0.00 0.00 0.00 89 1024.5
20240221062156 61 19 1.0 1.0 0.00 0.00 0.00 89 1024.3
20240221061654 60 16 1.0 1.0 0.00 0.00 0.00 88 1024.5
20240221061154 61 126 1.0 1.0 0.00 0.00 0.00 88 1024.3
20240221060652 61 1 1.0 1.0 0.00 0.00 0.00 87 1024.6
20240221060151 61 168 2.0 2.0 0.00 0.00 0.00 87 1024.5
20240221055651 61 186 4.0 5.0 0.00 0.00 0.00 87 1024.5
20240221055151 61 44 1.0 1.0 0.00 0.00 0.00 86 1024.5
20240221054649 61 256 3.0 5.0 0.00 0.00 0.00 86 1024.6
20240221054147 62 223 2.0 2.0 0.00 0.00 0.00 85 1024.6
20240221053646 62 154 3.0 3.0 0.00 0.00 0.00 84 1024.5
20240221053145 62 129 1.0 1.0 0.00 0.00 0.00 84 1024.5
20240221052644 62 285 2.0 2.0 0.00 0.00 0.00 83 1024.4
20240221052143 62 223 3.0 3.0 0.00 0.00 0.00 82 1024.4
20240221051642 62 16 0.0 0.0 0.00 0.00 0.00 81 1024.6
20240221051141 62 208 6.0 7.0 0.00 0.00 0.00 81 1024.5
20240221050640 63 200 5.0 5.0 0.00 0.00 0.00 80 1024.6
20240221050139 63 178 4.0 5.0 0.00 0.00 0.00 79 1024.6
20240221045638 63 153 3.0 5.0 0.00 0.00 0.00 78 1024.6
20240221045137 63 144 4.0 5.0 0.00 0.00 0.00 77 1024.4
20240221044636 64 111 3.0 3.0 0.00 0.00 0.00 76 1024.4
20240221044132 64 181 4.0 5.0 0.00 0.00 0.00 75 1024.2
20240221043633 64 175 4.0 5.0 0.00 0.00 0.00 75 1024.4
20240221043132 64 150 5.0 6.0 0.00 0.00 0.00 74 1024.3
20240221042632 65 179 5.0 7.0 0.00 0.00 0.00 72 1024.5
20240221042131 65 202 5.0 6.0 0.00 0.00 0.00 71 1024.4
20240221041630 65 190 3.0 3.0 0.00 0.00 0.00 70 1024.2
20240221041129 65 218 5.0 6.0 0.00 0.00 0.00 69 1024.2
20240221040629 65 196 5.0 5.0 0.00 0.00 0.00 68 1023.9
20240221040127 66 198 5.0 6.0 0.00 0.00 0.00 67 1024.0
20240221035625 66 182 7.0 8.0 0.00 0.00 0.00 67 1024.2
20240221035126 65 180 4.0 5.0 0.00 0.00 0.00 66 1024.2
20240221034624 65 160 4.0 5.0 0.00 0.00 0.00 66 1023.9
20240221034122 64 200 3.0 3.0 0.00 0.00 0.00 66 1023.9
20240221033622 63 355 1.0 1.0 0.00 0.00 0.00 67 1024.2
20240221033120 63 96 2.0 2.0 0.00 0.00 0.00 67 1023.9
20240221032620 62 91 1.0 2.0 0.00 0.00 0.00 68 1023.9
20240221032118 63 37 0.0 1.0 0.00 0.00 0.00 66 1024.0
20240221031617 63 98 1.0 1.0 0.00 0.00 0.00 66 1023.9
20240221031115 63 45 1.0 1.0 0.00 0.00 0.00 66 1024.2
20240221030614 63 58 1.0 1.0 0.00 0.00 0.00 66 1023.8
20240221030113 62 89 1.0 1.0 0.00 0.00 0.00 66 1023.8
20240221025611 61 102 2.0 2.0 0.00 0.00 0.00 68 1024.0
20240221025109 59 345 1.0 1.0 0.00 0.00 0.00 71 1023.8
20240221024608 58 31 0.0 1.0 0.00 0.00 0.00 73 1023.8
20240221024106 58 26 0.0 0.0 0.00 0.00 0.00 72 1023.9
20240221023605 59 26 0.0 0.0 0.00 0.00 0.00 71 1024.0
20240221023104 59 25 0.0 0.0 0.00 0.00 0.00 70 1023.8
20240221022603 60 26 0.0 0.0 0.00 0.00 0.00 69 1023.9
20240221022100 60 24 0.0 0.0 0.00 0.00 0.00 70 1023.9
20240221021600 59 17 0.0 1.0 0.00 0.00 0.00 71 1023.6
20240221021059 60 17 0.0 0.0 0.00 0.00 0.00 71 1023.6
20240221020558 60 24 0.0 0.0 0.00 0.00 0.00 70 1023.7
20240221020056 60 21 0.0 0.0 0.00 0.00 0.00 70 1023.8
20240221015555 61 34 0.0 0.0 0.00 0.00 0.00 69 1023.7
20240221015054 61 10 1.0 1.0 0.00 0.00 0.00 68 1023.7
20240221014552 62 14 1.0 1.0 0.00 0.00 0.00 68 1023.7
20240221014052 62 7 1.0 1.0 0.00 0.00 0.00 67 1023.7
20240221013550 62 13 1.0 1.0 0.00 0.00 0.00 66 1023.6
20240221013050 63 35 0.0 1.0 0.00 0.00 0.00 65 1023.7
20240221012550 63 47 1.0 1.0 0.00 0.00 0.00 65 1023.8
20240221012049 64 18 0.0 0.0 0.00 0.00 0.00 63 1023.6
20240221011547 65 7 1.0 1.0 0.00 0.00 0.00 62 1023.7
20240221011046 66 319 1.0 2.0 0.00 0.00 0.00 60 1023.7
20240221010544 68 8 1.0 1.0 0.00 0.00 0.00 58 1023.5
20240221010043 69 178 2.0 2.0 0.00 0.00 0.00 55 1023.4
20240221005541 69 180 2.0 2.0 0.00 0.00 0.00 55 1023.5
20240221005040 70 156 2.0 2.0 0.00 0.00 0.00 53 1023.5
20240221004540 70 91 2.0 2.0 0.00 0.00 0.00 52 1023.4
20240221004039 71 74 2.0 2.0 0.00 0.00 0.00 52 1023.5
20240221003537 71 39 1.0 2.0 0.00 0.00 0.00 51 1023.5
20240221003036 71 182 2.0 2.0 0.00 0.00 0.00 51 1023.4
20240221002535 72 90 2.0 2.0 0.00 0.00 0.00 50 1023.7
20240221002034 73 196 4.0 5.0 0.00 0.00 0.00 49 1023.5
20240221001534 73 163 3.0 5.0 0.00 0.00 0.00 48 1023.6
20240221001032 74 225 3.0 3.0 0.00 0.00 0.00 47 1023.6
20240221000532 74 171 4.0 6.0 0.00 0.00 0.00 47 1023.4
20240221000031 75 182 3.0 5.0 0.00 0.00 0.00 46 1023.6
20240220235529 75 221 4.0 5.0 0.00 0.00 0.00 46 1023.5
20240220235028 75 138 4.0 5.0 0.00 0.00 0.00 46 1023.6
20240220234528 75 169 7.0 8.0 0.00 0.00 0.00 45 1023.5
20240220234026 76 232 6.0 7.0 0.00 0.00 0.00 45 1023.5
20240220233525 76 197 9.0 10.0 0.00 0.00 0.00 45 1023.6
20240220233024 76 191 8.0 9.0 0.00 0.00 0.00 45 1023.6
20240220232522 76 205 5.0 6.0 0.00 0.00 0.00 45 1023.6
20240220232022 76 212 9.0 13.0 0.00 0.00 0.00 45 1023.3
20240220231520 76 231 5.0 7.0 0.00 0.00 0.00 45 1023.5
20240220231019 76 215 10.0 11.0 0.00 0.00 0.00 44 1023.3
20240220230518 77 214 5.0 7.0 0.00 0.00 0.00 44 1023.3
20240220230017 77 163 5.0 8.0 0.00 0.00 0.00 43 1023.4
20240220225516 77 181 5.0 6.0 0.00 0.00 0.00 43 1023.6
20240220225015 77 190 9.0 10.0 0.00 0.00 0.00 43 1023.5
20240220224512 77 190 6.0 8.0 0.00 0.00 0.00 42 1023.3
20240220224011 77 219 7.0 8.0 0.00 0.00 0.00 41 1023.3
20240220223510 77 187 10.0 10.0 0.00 0.00 0.00 41 1023.3
20240220223009 77 200 6.0 7.0 0.00 0.00 0.00 41 1023.3
20240220222509 78 156 7.0 8.0 0.00 0.00 0.00 39 1023.5
20240220222007 77 194 11.0 15.0 0.00 0.00 0.00 39 1023.3
20240220221506 77 235 9.0 10.0 0.00 0.00 0.00 39 1023.4
20240220221005 77 197 8.0 9.0 0.00 0.00 0.00 39 1023.2
20240220220504 77 233 9.0 11.0 0.00 0.00 0.00 39 1023.3
20240220220003 77 175 7.0 9.0 0.00 0.00 0.00 39 1023.3
20240220215501 77 189 9.0 11.0 0.00 0.00 0.00 38 1023.4
20240220214958 77 225 11.0 14.0 0.00 0.00 0.00 38 1023.4
20240220214458 77 192 8.0 10.0 0.00 0.00 0.00 38 1023.5
20240220213957 77 215 8.0 9.0 0.00 0.00 0.00 39 1023.7
20240220213455 77 209 8.0 10.0 0.00 0.00 0.00 37 1023.5
20240220212955 77 214 6.0 7.0 0.00 0.00 0.00 36 1023.5
20240220212426 77 207 8.0 10.0 0.00 0.00 0.00 36 1023.6
20240220211925 78 200 9.0 10.0 0.00 0.00 0.00 35 1023.6
20240220211424 77 174 8.0 11.0 0.00 0.00 0.00 37 1023.5
20240220210923 77 190 8.0 10.0 0.00 0.00 0.00 36 1023.7
20240220210422 77 242 6.0 9.0 0.00 0.00 0.00 37 1023.5
20240220205921 77 227 9.0 11.0 0.00 0.00 0.00 35 1023.7
20240220205420 78 199 4.0 7.0 0.00 0.00 0.00 36 1023.5
20240220204918 77 184 9.0 11.0 0.00 0.00 0.00 36 1023.8
20240220204417 78 269 7.0 8.0 0.00 0.00 0.00 36 1024.0
20240220203915 77 217 8.0 10.0 0.00 0.00 0.00 36 1024.0
20240220203414 77 205 8.0 10.0 0.00 0.00 0.00 37 1024.2
20240220202913 77 225 8.0 10.0 0.00 0.00 0.00 38 1023.8
20240220202412 78 215 10.0 13.0 0.00 0.00 0.00 34 1024.0
20240220201910 77 220 8.0 10.0 0.00 0.00 0.00 36 1024.3
20240220201409 77 224 9.0 10.0 0.00 0.00 0.00 35 1024.5
20240220200908 77 204 11.0 15.0 0.00 0.00 0.00 34 1024.3
20240220200406 77 203 9.0 10.0 0.00 0.00 0.00 38 1024.3
20240220195905 77 215 6.0 7.0 0.00 0.00 0.00 39 1024.5
20240220195405 77 183 7.0 11.0 0.00 0.00 0.00 40 1024.6
20240220194902 77 213 7.0 8.0 0.00 0.00 0.00 43 1024.7
20240220194400 76 287 4.0 6.0 0.00 0.00 0.00 42 1024.7
20240220193859 77 263 5.0 6.0 0.00 0.00 0.00 40 1024.8
20240220193357 76 111 4.0 6.0 0.00 0.00 0.00 42 1024.9
20240220192856 76 199 2.0 2.0 0.00 0.00 0.00 40 1024.8
20240220192354 76 182 4.0 6.0 0.00 0.00 0.00 40 1025.1
20240220191853 75 213 6.0 7.0 0.00 0.00 0.00 43 1025.0
20240220191352 75 207 8.0 11.0 0.00 0.00 0.00 41 1025.3
20240220190851 75 222 6.0 11.0 0.00 0.00 0.00 42 1025.5
20240220190350 75 201 11.0 13.0 0.00 0.00 0.00 42 1025.5
20240220185848 75 114 6.0 7.0 0.00 0.00 0.00 43 1025.5
20240220185347 75 169 12.0 14.0 0.00 0.00 0.00 42 1025.6
20240220184847 74 258 5.0 6.0 0.00 0.00 0.00 46 1025.5
20240220184345 73 165 5.0 6.0 0.00 0.00 0.00 45 1025.6
20240220183845 73 236 9.0 10.0 0.00 0.00 0.00 42 1025.8
20240220183342 73 212 8.0 9.0 0.00 0.00 0.00 45 1026.0
20240220182841 73 224 12.0 15.0 0.00 0.00 0.00 44 1025.8
20240220182340 72 205 7.0 9.0 0.00 0.00 0.00 47 1026.1
20240220181841 73 173 7.0 9.0 0.00 0.00 0.00 46 1026.2
20240220181339 72 173 7.0 9.0 0.00 0.00 0.00 45 1026.2
20240220180839 72 248 10.0 11.0 0.00 0.00 0.00 46 1026.2
20240220180337 72 175 7.0 8.0 0.00 0.00 0.00 49 1026.4
20240220175836 72 195 8.0 9.0 0.00 0.00 0.00 49 1026.4
20240220175335 71 221 6.0 7.0 0.00 0.00 0.00 51 1026.7
20240220174835 71 224 7.0 8.0 0.00 0.00 0.00 50 1026.7
20240220174334 71 188 8.0 10.0 0.00 0.00 0.00 51 1026.7
20240220173833 71 206 6.0 8.0 0.00 0.00 0.00 53 1026.8
20240220173331 71 201 7.0 8.0 0.00 0.00 0.00 53 1027.0
20240220172830 71 219 5.0 6.0 0.00 0.00 0.00 53 1027.0
20240220172330 69 195 9.0 10.0 0.00 0.00 0.00 55 1027.2
20240220171829 70 194 6.0 8.0 0.00 0.00 0.00 53 1026.9
20240220171329 68 218 8.0 10.0 0.00 0.00 0.00 56 1027.2
20240220170827 68 177 5.0 6.0 0.00 0.00 0.00 59 1027.1
20240220170326 68 214 9.0 10.0 0.00 0.00 0.00 60 1026.9
20240220165825 68 224 9.0 9.0 0.00 0.00 0.00 60 1026.9
20240220165324 68 221 9.0 10.0 0.00 0.00 0.00 59 1027.1
20240220164823 68 212 8.0 9.0 0.00 0.00 0.00 61 1027.0
20240220164321 67 203 4.0 6.0 0.00 0.00 0.00 63 1027.2
20240220163820 67 229 6.0 6.0 0.00 0.00 0.00 63 1027.1
20240220163315 67 192 5.0 6.0 0.00 0.00 0.00 64 1027.2
20240220162814 67 208 6.0 7.0 0.00 0.00 0.00 65 1027.3
20240220162312 66 141 6.0 7.0 0.00 0.00 0.00 65 1027.3
20240220161811 66 192 8.0 9.0 0.00 0.00 0.00 65 1027.1
20240220161310 66 227 5.0 7.0 0.00 0.00 0.00 65 1027.0
20240220160809 66 217 5.0 6.0 0.00 0.00 0.00 65 1027.2
20240220160308 66 205 5.0 6.0 0.00 0.00 0.00 65 1027.1
20240220155808 65 149 3.0 3.0 0.00 0.00 0.00 67 1027.0
20240220155307 65 179 8.0 8.0 0.00 0.00 0.00 66 1027.0
20240220154807 64 208 4.0 5.0 0.00 0.00 0.00 68 1026.9
20240220154305 65 196 5.0 7.0 0.00 0.00 0.00 68 1027.1
20240220153804 64 215 4.0 5.0 0.00 0.00 0.00 69 1027.1
20240220153304 63 57 1.0 1.0 0.00 0.00 0.00 72 1026.9
20240220152803 63 56 1.0 1.0 0.00 0.00 0.00 70 1027.0
20240220152300 63 54 0.0 1.0 0.00 0.00 0.00 71 1027.0